CheckWX is a tool to help pilots better visualize weather data.  It is not intended as a substitute for an official pre-flight weather briefing.

00:46:03 UTC

EGYM TAF
RAF Marham Airport
Marham, United Kingdom
TAF EGYM 261714Z 2618/2703 31006KT 9999 BKN045

Mar-26@
18:00 UTC

Mar-26 @ 18:00 UTC

Mar-27@
03:00 UTC

Mar-27 @ 03:00 UTC

TAF EGYM 261714Z 2618/2703 31006KT 9999 BKN045
Wind
  • 310° at 6 KTS
Cloud Levels
  • Broken at 4,500' AGL